createdAt,value
2023-01-21T00:01:36.621Z,-0.96
2023-01-21T00:04:06.443Z,-0.98
2023-01-21T00:06:33.004Z,-0.97
2023-01-21T00:08:59.656Z,-0.98
2023-01-21T00:11:26.480Z,-1.03
2023-01-21T00:13:53.071Z,-0.98
2023-01-21T00:16:19.654Z,-0.97
2023-01-21T00:18:47.909Z,-1.03
2023-01-21T00:21:14.452Z,-1.10
2023-01-21T00:23:41.219Z,-1.10
2023-01-21T00:26:11.576Z,-1.09
2023-01-21T00:28:38.691Z,-1.08
2023-01-21T00:31:07.211Z,-1.01
2023-01-21T00:33:35.345Z,-1.00
2023-01-21T00:36:03.788Z,-0.97
2023-01-21T00:38:31.137Z,-0.99
2023-01-21T00:41:02.941Z,-0.97
2023-01-21T00:43:29.759Z,-0.98
2023-01-21T00:45:56.548Z,-0.95
2023-01-21T00:48:23.318Z,-0.95
2023-01-21T00:50:51.575Z,-0.94
2023-01-21T00:53:18.589Z,-0.92
2023-01-21T00:55:45.208Z,-0.93
2023-01-21T00:58:11.840Z,-0.92
2023-01-21T01:00:38.504Z,-0.93
2023-01-21T01:03:05.490Z,-0.92
2023-01-21T01:05:32.196Z,-0.90
2023-01-21T01:07:58.816Z,-0.89
2023-01-21T01:10:25.526Z,-0.90
2023-01-21T01:12:52.093Z,-0.88
2023-01-21T01:15:19.053Z,-0.82
2023-01-21T01:17:45.660Z,-0.87
2023-01-21T01:20:12.503Z,-0.88
2023-01-21T01:22:39.107Z,-0.86
2023-01-21T01:25:06.087Z,-0.81
2023-01-21T01:27:32.718Z,-0.91
2023-01-21T01:29:59.264Z,-0.88
2023-01-21T01:32:25.819Z,-0.89
2023-01-21T01:34:52.416Z,-0.93
2023-01-21T01:37:18.976Z,-0.94
2023-01-21T01:39:45.510Z,-0.94
2023-01-21T01:42:15.760Z,-1.04
2023-01-21T01:45:00.136Z,-1.01
2023-01-21T01:47:32.464Z,-1.03
2023-01-21T01:50:01.448Z,-0.95
2023-01-21T01:52:29.704Z,-0.95
2023-01-21T01:54:59.070Z,-0.93
2023-01-21T01:57:32.282Z,-0.97
2023-01-21T02:00:02.079Z,-0.94
2023-01-21T02:02:28.806Z,-0.95
2023-01-21T02:04:58.242Z,-0.99
2023-01-21T02:07:29.364Z,-0.99
2023-01-21T02:09:56.327Z,-1.03
2023-01-21T02:12:23.278Z,-1.03
2023-01-21T02:14:50.752Z,-1.05
2023-01-21T02:17:40.221Z,-1.10
2023-01-21T02:20:42.100Z,-1.08
2023-01-21T02:23:36.061Z,-1.11
2023-01-21T02:26:33.274Z,-1.03
2023-01-21T02:29:16.221Z,-1.09
2023-01-21T02:31:53.394Z,-1.10
2023-01-21T02:34:43.247Z,-1.15
2023-01-21T02:37:24.199Z,-1.14
2023-01-21T02:40:11.871Z,-1.15
2023-01-21T02:42:46.541Z,-1.18
2023-01-21T02:45:29.360Z,-1.13
2023-01-21T02:48:16.506Z,-1.20
2023-01-21T02:50:46.099Z,-1.18
2023-01-21T02:53:29.638Z,-1.23
2023-01-21T02:56:01.379Z,-1.26
2023-01-21T02:58:34.123Z,-1.26
2023-01-21T03:01:11.281Z,-1.26
2023-01-21T03:03:58.713Z,-1.26
2023-01-21T03:06:37.544Z,-1.24
2023-01-21T03:09:15.463Z,-1.23
2023-01-21T03:11:49.454Z,-1.24
2023-01-21T03:14:39.266Z,-1.24
2023-01-21T03:17:20.119Z,-1.19
2023-01-21T03:19:57.013Z,-1.20
2023-01-21T03:22:29.920Z,-1.16
2023-01-21T03:24:58.931Z,-1.23
2023-01-21T03:27:28.515Z,-1.23
2023-01-21T03:30:00.567Z,-1.22
2023-01-21T03:32:29.763Z,-1.23
2023-01-21T03:34:56.995Z,-1.28
2023-01-21T03:37:35.817Z,-1.32
2023-01-21T03:40:16.170Z,-1.25
2023-01-21T03:42:44.708Z,-1.26
2023-01-21T03:45:12.136Z,-1.30
2023-01-21T03:47:43.124Z,-1.29
2023-01-21T03:50:20.262Z,-1.27
2023-01-21T03:52:47.066Z,-1.33
2023-01-21T03:55:15.973Z,-1.30
2023-01-21T03:57:42.720Z,-1.31
2023-01-21T04:00:13.553Z,-1.30
2023-01-21T04:02:40.151Z,-1.25
2023-01-21T04:05:09.927Z,-1.32
2023-01-21T04:07:36.660Z,-1.29
2023-01-21T04:10:03.525Z,-1.19
2023-01-21T04:12:30.134Z,-1.23
2023-01-21T04:14:57.201Z,-1.23
2023-01-21T04:17:23.920Z,-1.18
2023-01-21T04:19:50.902Z,-1.13
2023-01-21T04:22:17.580Z,-1.11
2023-01-21T04:24:44.158Z,-1.17
2023-01-21T04:27:10.743Z,-1.18
2023-01-21T04:29:37.503Z,-1.17
2023-01-21T04:32:04.322Z,-1.19
2023-01-21T04:34:30.976Z,-1.12
2023-01-21T04:36:57.562Z,-1.19
2023-01-21T04:39:24.152Z,-1.10
2023-01-21T04:41:50.726Z,-1.18
2023-01-21T04:44:17.261Z,-1.25
2023-01-21T04:46:43.870Z,-1.23
2023-01-21T04:49:10.481Z,-1.26
2023-01-21T04:51:37.268Z,-1.24
2023-01-21T04:54:03.936Z,-1.22
2023-01-21T04:56:30.530Z,-1.26
2023-01-21T04:58:57.106Z,-1.25
2023-01-21T05:01:23.690Z,-1.22
2023-01-21T05:03:50.495Z,-1.28
2023-01-21T05:06:17.075Z,-1.26
2023-01-21T05:08:43.679Z,-1.22
2023-01-21T05:11:15.385Z,-1.31
2023-01-21T05:13:41.946Z,-1.22
2023-01-21T05:16:10.081Z,-1.18
2023-01-21T05:18:37.785Z,-1.27
2023-01-21T05:21:05.211Z,-1.28
2023-01-21T05:23:31.781Z,-1.21
2023-01-21T05:25:58.341Z,-1.21
2023-01-21T05:28:24.944Z,-1.25
2023-01-21T05:30:51.533Z,-1.21
2023-01-21T05:33:18.141Z,-1.26
2023-01-21T05:35:44.725Z,-1.25
2023-01-21T05:38:11.288Z,-1.27
2023-01-21T05:40:38.061Z,-1.24
2023-01-21T05:43:04.597Z,-1.23
2023-01-21T05:45:31.165Z,-1.29
2023-01-21T05:47:57.722Z,-1.32
2023-01-21T05:50:24.361Z,-1.27
2023-01-21T05:52:50.974Z,-1.30
2023-01-21T05:55:17.552Z,-1.28
2023-01-21T05:57:44.184Z,-1.25
2023-01-21T06:00:11.339Z,-1.30
2023-01-21T06:02:37.988Z,-1.21
2023-01-21T06:05:04.876Z,-1.22
2023-01-21T06:07:31.507Z,-1.22
2023-01-21T06:09:58.118Z,-1.28
2023-01-21T06:12:24.991Z,-1.36
2023-01-21T06:14:51.598Z,-1.44
2023-01-21T06:17:18.272Z,-1.36
2023-01-21T06:19:44.830Z,-1.40
2023-01-21T06:22:18.828Z,-1.41
2023-01-21T06:24:45.513Z,-1.35
2023-01-21T06:27:12.554Z,-1.44
2023-01-21T06:29:39.175Z,-1.37
2023-01-21T06:32:06.294Z,-1.37
2023-01-21T06:34:32.951Z,-1.35
2023-01-21T06:36:59.572Z,-1.43
2023-01-21T06:39:26.153Z,-1.33
2023-01-21T06:41:55.086Z,-1.34
2023-01-21T06:44:22.467Z,-1.36
2023-01-21T06:47:00.187Z,-1.37
2023-01-21T06:49:27.477Z,-1.37
2023-01-21T06:51:54.051Z,-1.43
2023-01-21T06:54:20.631Z,-1.49
2023-01-21T06:56:47.720Z,-1.49
2023-01-21T06:59:14.363Z,-1.52
2023-01-21T07:01:40.988Z,-1.51
2023-01-21T07:04:07.780Z,-1.47
2023-01-21T07:06:34.329Z,-1.49
2023-01-21T07:09:00.966Z,-1.49
2023-01-21T07:11:27.543Z,-1.46
2023-01-21T07:13:54.127Z,-1.44
2023-01-21T07:16:20.772Z,-1.41
2023-01-21T07:18:47.467Z,-1.37
2023-01-21T07:21:14.211Z,-1.27
2023-01-21T07:23:40.929Z,-1.38
2023-01-21T07:26:07.584Z,-1.45
2023-01-21T07:28:34.333Z,-1.50
2023-01-21T07:31:03.045Z,-1.53
2023-01-21T07:33:30.295Z,-1.53
2023-01-21T07:35:56.927Z,-1.57
2023-01-21T07:38:23.527Z,-1.52
2023-01-21T07:40:50.584Z,-1.50
2023-01-21T07:43:17.611Z,-1.47
2023-01-21T07:45:44.360Z,-1.41
2023-01-21T07:48:11.451Z,-1.40
2023-01-21T07:50:38.094Z,-1.40
2023-01-21T07:53:04.808Z,-1.40
2023-01-21T07:55:31.426Z,-1.42
2023-01-21T07:57:58.923Z,-1.44
2023-01-21T08:00:29.588Z,-1.47
2023-01-21T08:02:57.487Z,-1.46
2023-01-21T08:05:27.415Z,-1.47
2023-01-21T08:07:57.441Z,-1.44
2023-01-21T08:10:24.423Z,-1.44
2023-01-21T08:12:51.022Z,-1.43
2023-01-21T08:15:18.021Z,-1.42
2023-01-21T08:17:47.120Z,-1.45
2023-01-21T08:20:13.833Z,-1.44
2023-01-21T08:22:40.520Z,-1.37
2023-01-21T08:25:08.182Z,-1.40
2023-01-21T08:27:34.775Z,-1.42
2023-01-21T08:30:01.341Z,-1.38
2023-01-21T08:32:31.195Z,-1.39
2023-01-21T08:34:57.943Z,-1.33
2023-01-21T08:37:24.609Z,-1.37
2023-01-21T08:39:51.191Z,-1.35
2023-01-21T08:42:17.763Z,-1.31
2023-01-21T08:44:46.048Z,-1.35
2023-01-21T08:47:12.688Z,-1.36
2023-01-21T08:49:39.286Z,-1.34
2023-01-21T08:52:06.063Z,-1.36
2023-01-21T08:54:32.625Z,-1.32
2023-01-21T08:56:59.249Z,-1.28
2023-01-21T08:59:28.765Z,-1.29
2023-01-21T09:01:56.256Z,-1.30
2023-01-21T09:04:23.649Z,-1.32
2023-01-21T09:06:50.434Z,-1.34
2023-01-21T09:09:17.342Z,-1.30
2023-01-21T09:11:44.132Z,-1.26
2023-01-21T09:14:10.834Z,-1.24
2023-01-21T09:16:37.675Z,-1.27
2023-01-21T09:19:04.948Z,-1.26
2023-01-21T09:21:34.694Z,-1.32
2023-01-21T09:24:01.572Z,-1.27
2023-01-21T09:26:28.479Z,-1.25
2023-01-21T09:28:57.820Z,-1.25
2023-01-21T09:31:26.267Z,-1.29
2023-01-21T09:34:03.714Z,-1.27
2023-01-21T09:36:33.215Z,-1.27
2023-01-21T09:39:00.684Z,-1.29
2023-01-21T09:41:38.426Z,-1.23
2023-01-21T09:44:20.265Z,-1.20
2023-01-21T09:47:09.733Z,-1.28
2023-01-21T09:49:42.088Z,-1.16
2023-01-21T09:52:35.617Z,-1.23
2023-01-21T09:55:03.125Z,-1.23
2023-01-21T09:57:29.664Z,-1.26
2023-01-21T09:59:57.236Z,-1.29
2023-01-21T10:02:24.830Z,-1.23
2023-01-21T10:05:06.751Z,-1.20
2023-01-21T10:07:42.640Z,-1.14
2023-01-21T10:10:36.865Z,-1.11
2023-01-21T10:13:18.617Z,-1.17
2023-01-21T10:15:57.145Z,-1.24
2023-01-21T10:18:30.783Z,-1.20
2023-01-21T10:21:04.939Z,-1.10
2023-01-21T10:23:43.113Z,-1.08
2023-01-21T10:26:13.080Z,-1.07
2023-01-21T10:28:44.533Z,-1.11
2023-01-21T10:31:19.422Z,-1.11
2023-01-21T10:33:46.253Z,-1.05
2023-01-21T10:36:13.889Z,-1.03
2023-01-21T10:38:54.326Z,-0.99
2023-01-21T10:41:36.400Z,-0.92
2023-01-21T10:44:22.839Z,-0.94
2023-01-21T10:47:04.571Z,-0.99
2023-01-21T10:49:44.740Z,-1.01
2023-01-21T10:52:23.879Z,-0.91
2023-01-21T10:55:20.978Z,-0.90
2023-01-21T10:57:49.647Z,-0.87
2023-01-21T11:00:35.642Z,-0.89
2023-01-21T11:03:12.563Z,-0.89
2023-01-21T11:05:39.890Z,-0.93
2023-01-21T11:08:07.626Z,-0.93
2023-01-21T11:10:34.356Z,-0.96
2023-01-21T11:13:00.988Z,-0.96
2023-01-21T11:15:33.526Z,-0.94
2023-01-21T11:18:00.155Z,-0.97
2023-01-21T11:20:41.061Z,-0.93
2023-01-21T11:23:28.296Z,-0.88
2023-01-21T11:26:08.707Z,-0.99
2023-01-21T11:28:36.716Z,-0.97
2023-01-21T11:31:24.960Z,-1.04
2023-01-21T11:33:52.731Z,-1.02
2023-01-21T11:36:21.174Z,-0.98
2023-01-21T11:39:01.451Z,-0.96
2023-01-21T11:41:28.876Z,-0.99
2023-01-21T11:44:08.978Z,-1.03
2023-01-21T11:46:38.617Z,-0.96
2023-01-21T11:49:26.580Z,-0.91
2023-01-21T11:52:15.751Z,-1.03
2023-01-21T11:54:43.041Z,-1.05
2023-01-21T11:57:28.671Z,-1.07
2023-01-21T11:59:59.636Z,-1.06
2023-01-21T12:02:37.782Z,-1.05
2023-01-21T12:05:12.176Z,-0.97
2023-01-21T12:07:43.373Z,-0.94
2023-01-21T12:10:35.685Z,-0.99
2023-01-21T12:13:13.875Z,-0.98
2023-01-21T12:16:11.355Z,-1.03
2023-01-21T12:18:52.602Z,-1.04
2023-01-21T12:21:49.870Z,-1.03
2023-01-21T12:24:36.493Z,-1.07
2023-01-21T12:27:18.838Z,-1.10
2023-01-21T12:30:01.644Z,-1.07
2023-01-21T12:32:37.335Z,-1.07
2023-01-21T12:35:27.248Z,-1.06
2023-01-21T12:38:02.156Z,-1.12
2023-01-21T12:40:38.917Z,-1.04
2023-01-21T12:43:14.151Z,-1.15
2023-01-21T12:45:47.754Z,-1.09
2023-01-21T12:48:21.821Z,-1.10
2023-01-21T12:51:01.415Z,-1.23
2023-01-21T12:53:44.322Z,-1.10
2023-01-21T12:56:41.398Z,-1.06
2023-01-21T12:59:07.963Z,-1.07
2023-01-21T13:01:49.219Z,-1.02
2023-01-21T13:04:32.148Z,-1.02
2023-01-21T13:07:02.970Z,-0.96
2023-01-21T13:09:38.719Z,-1.03
2023-01-21T13:12:21.578Z,-0.97
2023-01-21T13:14:58.193Z,-0.98
2023-01-21T13:17:30.930Z,-0.98
2023-01-21T13:19:59.198Z,-0.90
2023-01-21T13:22:45.112Z,-0.88
2023-01-21T13:25:27.160Z,-0.92
2023-01-21T13:28:10.140Z,-0.96
2023-01-21T13:30:53.618Z,-0.93
2023-01-21T13:33:28.575Z,-1.01
2023-01-21T13:36:25.208Z,-1.02
2023-01-21T13:39:10.358Z,-0.98
2023-01-21T13:41:50.406Z,-0.98
2023-01-21T13:44:48.084Z,-1.00
2023-01-21T13:47:42.058Z,-1.02
2023-01-21T13:50:24.918Z,-0.97
2023-01-21T13:53:26.938Z,-1.07
2023-01-21T13:56:02.370Z,-1.09
2023-01-21T13:58:30.997Z,-1.08
2023-01-21T14:01:12.983Z,-1.12
2023-01-21T14:04:02.985Z,-1.08
2023-01-21T14:06:40.506Z,-1.01
2023-01-21T14:09:20.424Z,-1.05
2023-01-21T14:11:57.711Z,-0.98
2023-01-21T14:14:39.267Z,-1.10
2023-01-21T14:17:36.433Z,-1.10
2023-01-21T14:20:31.489Z,-1.15
2023-01-21T14:23:20.833Z,-1.10
2023-01-21T14:26:19.539Z,-1.10
2023-01-21T14:29:16.524Z,-1.12
2023-01-21T14:31:49.827Z,-1.11
2023-01-21T14:34:22.447Z,-1.11
2023-01-21T14:37:02.559Z,-1.02
2023-01-21T14:39:46.896Z,-0.99
2023-01-21T14:42:17.675Z,-0.88
2023-01-21T14:45:06.095Z,-0.95
2023-01-21T14:47:32.706Z,-0.98
2023-01-21T14:50:00.024Z,-0.88
2023-01-21T14:52:33.108Z,-0.98
2023-01-21T14:55:00.419Z,-1.12
2023-01-21T14:57:28.027Z,-1.15
2023-01-21T15:00:04.280Z,-1.17
2023-01-21T15:02:35.627Z,-1.02
2023-01-21T15:05:15.641Z,-1.19
2023-01-21T15:07:45.855Z,-1.19
2023-01-21T15:10:20.540Z,-1.22
2023-01-21T15:12:53.779Z,-1.27
2023-01-21T15:15:29.641Z,-1.20
2023-01-21T15:17:57.655Z,-1.30
2023-01-21T15:20:44.941Z,-1.29
2023-01-21T15:23:38.654Z,-1.28
2023-01-21T15:26:19.263Z,-1.29
2023-01-21T15:28:46.919Z,-1.28
2023-01-21T15:31:13.588Z,-1.26
2023-01-21T15:33:57.220Z,-1.26
2023-01-21T15:36:35.452Z,-1.26
2023-01-21T15:39:12.283Z,-1.26
2023-01-21T15:41:51.972Z,-1.27
2023-01-21T15:44:18.552Z,-1.22
2023-01-21T15:46:51.624Z,-1.11
2023-01-21T15:49:37.807Z,-1.16
2023-01-21T15:52:32.717Z,-1.25
2023-01-21T15:55:00.480Z,-1.24
2023-01-21T15:57:56.500Z,-1.24
2023-01-21T16:00:24.136Z,-1.21
2023-01-21T16:03:24.651Z,-1.14
2023-01-21T16:06:19.869Z,-1.06
2023-01-21T16:09:05.251Z,-1.07
2023-01-21T16:12:02.317Z,-1.09
2023-01-21T16:14:52.904Z,-1.10
2023-01-21T16:17:35.559Z,-1.15
2023-01-21T16:20:06.126Z,-1.21
2023-01-21T16:22:38.292Z,-1.15
2023-01-21T16:25:10.640Z,-1.18
2023-01-21T16:27:37.251Z,-1.04
2023-01-21T16:30:12.044Z,-1.14
2023-01-21T16:32:38.715Z,-1.14
2023-01-21T16:35:06.239Z,-1.15
2023-01-21T16:37:33.094Z,-1.24
2023-01-21T16:40:30.372Z,-1.23
2023-01-21T16:43:16.880Z,-1.26
2023-01-21T16:45:50.282Z,-1.28
2023-01-21T16:48:22.070Z,-1.31
2023-01-21T16:50:48.847Z,-1.31
2023-01-21T16:53:18.099Z,-1.32
2023-01-21T16:55:47.226Z,-1.27
2023-01-21T16:58:37.829Z,-1.30
2023-01-21T17:01:10.342Z,-1.29
2023-01-21T17:03:38.196Z,-1.31
2023-01-21T17:06:11.066Z,-1.33
2023-01-21T17:08:38.459Z,-1.27
2023-01-21T17:11:11.027Z,-1.28
2023-01-21T17:13:42.923Z,-1.24
2023-01-21T17:16:24.031Z,-1.29
2023-01-21T17:19:07.487Z,-1.30
2023-01-21T17:21:40.051Z,-1.30
2023-01-21T17:24:19.499Z,-1.25
2023-01-21T17:26:49.529Z,-1.28
2023-01-21T17:29:19.204Z,-1.28
2023-01-21T17:31:53.892Z,-1.25
2023-01-21T17:34:23.837Z,-1.32
2023-01-21T17:36:52.621Z,-1.18
2023-01-21T17:39:49.895Z,-1.27
2023-01-21T17:42:20.219Z,-1.35
2023-01-21T17:44:50.206Z,-1.35
2023-01-21T17:47:23.578Z,-1.39
2023-01-21T17:49:58.096Z,-1.37
2023-01-21T17:52:25.160Z,-1.37
2023-01-21T17:55:09.606Z,-1.38
2023-01-21T17:57:36.301Z,-1.36
2023-01-21T18:00:23.905Z,-1.36
2023-01-21T18:02:50.554Z,-1.35
2023-01-21T18:05:17.423Z,-1.33
2023-01-21T18:07:44.195Z,-1.37
2023-01-21T18:10:16.822Z,-1.36
2023-01-21T18:12:43.451Z,-1.38
2023-01-21T18:15:14.749Z,-1.31
2023-01-21T18:17:46.044Z,-1.32
2023-01-21T18:20:16.765Z,-1.38
2023-01-21T18:22:43.551Z,-1.38
2023-01-21T18:25:13.256Z,-1.42
2023-01-21T18:27:41.224Z,-1.43
2023-01-21T18:30:14.184Z,-1.40
2023-01-21T18:32:42.716Z,-1.41
2023-01-21T18:35:10.527Z,-1.46
2023-01-21T18:37:37.424Z,-1.46
2023-01-21T18:40:05.805Z,-1.46
2023-01-21T18:42:33.206Z,-1.47
2023-01-21T18:44:59.827Z,-1.42
2023-01-21T18:47:26.476Z,-1.42
2023-01-21T18:49:53.213Z,-1.46
2023-01-21T18:52:21.286Z,-1.42
2023-01-21T18:54:47.927Z,-1.46
2023-01-21T18:57:18.455Z,-1.45
2023-01-21T18:59:45.064Z,-1.37
2023-01-21T19:02:15.999Z,-1.42
2023-01-21T19:04:42.990Z,-1.43
2023-01-21T19:07:14.973Z,-1.47
2023-01-21T19:09:46.081Z,-1.51
2023-01-21T19:12:14.775Z,-1.52
2023-01-21T19:14:41.377Z,-1.54
2023-01-21T19:17:14.296Z,-1.43
2023-01-21T19:19:41.440Z,-1.48
2023-01-21T19:22:14.995Z,-1.41
2023-01-21T19:24:42.197Z,-1.47
2023-01-21T19:27:23.069Z,-1.40
2023-01-21T19:29:49.638Z,-1.48
2023-01-21T19:32:16.330Z,-1.47
2023-01-21T19:34:43.059Z,-1.47
2023-01-21T19:37:14.232Z,-1.52
2023-01-21T19:39:40.872Z,-1.47
2023-01-21T19:42:10.849Z,-1.46
2023-01-21T19:44:39.389Z,-1.49
2023-01-21T19:47:14.284Z,-1.49
2023-01-21T19:49:40.893Z,-1.53
2023-01-21T19:52:09.142Z,-1.47
2023-01-21T19:54:35.726Z,-1.49
2023-01-21T19:57:02.328Z,-1.51
2023-01-21T19:59:28.937Z,-1.57
2023-01-21T20:01:55.583Z,-1.61
2023-01-21T20:04:25.479Z,-1.62
2023-01-21T20:06:52.209Z,-1.60
2023-01-21T20:09:22.019Z,-1.59
2023-01-21T20:11:48.609Z,-1.55
2023-01-21T20:14:15.230Z,-1.53
2023-01-21T20:16:50.042Z,-1.55
2023-01-21T20:19:19.141Z,-1.56
2023-01-21T20:21:59.935Z,-1.58
2023-01-21T20:24:30.090Z,-1.56
2023-01-21T20:26:57.259Z,-1.55
2023-01-21T20:29:23.934Z,-1.55
2023-01-21T20:31:51.990Z,-1.57
2023-01-21T20:34:18.561Z,-1.57
2023-01-21T20:36:48.401Z,-1.57
2023-01-21T20:39:15.301Z,-1.56
2023-01-21T20:41:43.401Z,-1.58
2023-01-21T20:44:10.550Z,-1.62
2023-01-21T20:46:37.301Z,-1.63
2023-01-21T20:49:03.943Z,-1.61
2023-01-21T20:51:30.693Z,-1.64
2023-01-21T20:53:57.254Z,-1.62
2023-01-21T20:56:27.059Z,-1.65
2023-01-21T20:58:54.170Z,-1.66
2023-01-21T21:01:23.583Z,-1.64
2023-01-21T21:03:50.943Z,-1.66
2023-01-21T21:06:21.373Z,-1.71
2023-01-21T21:08:50.352Z,-1.71
2023-01-21T21:11:18.447Z,-1.69
2023-01-21T21:13:48.346Z,-1.73
2023-01-21T21:16:27.823Z,-1.72
2023-01-21T21:18:54.540Z,-1.74
2023-01-21T21:21:23.536Z,-1.75
2023-01-21T21:23:51.593Z,-1.71
2023-01-21T21:26:23.448Z,-1.80
2023-01-21T21:28:51.562Z,-1.78
2023-01-21T21:31:18.291Z,-1.79
2023-01-21T21:33:44.947Z,-1.81
2023-01-21T21:36:14.786Z,-1.84
2023-01-21T21:38:41.964Z,-1.77
2023-01-21T21:41:30.039Z,-1.81
2023-01-21T21:43:56.630Z,-1.80
2023-01-21T21:46:38.493Z,-1.81
2023-01-21T21:49:05.060Z,-1.83
2023-01-21T21:51:31.870Z,-1.84
2023-01-21T21:53:58.520Z,-1.78
2023-01-21T21:56:25.115Z,-1.76
2023-01-21T21:58:52.137Z,-1.76
2023-01-21T22:01:22.069Z,-1.72
2023-01-21T22:03:48.996Z,-1.74
2023-01-21T22:06:18.440Z,-1.73
2023-01-21T22:08:45.488Z,-1.77
2023-01-21T22:11:15.782Z,-1.70
2023-01-21T22:13:43.639Z,-1.71
2023-01-21T22:16:14.183Z,-1.75
2023-01-21T22:18:41.347Z,-1.77
2023-01-21T22:21:13.723Z,-1.79
2023-01-21T22:23:40.358Z,-1.78
2023-01-21T22:26:09.625Z,-1.81
2023-01-21T22:28:36.378Z,-1.83
2023-01-21T22:31:05.014Z,-1.87
2023-01-21T22:33:32.314Z,-1.86
2023-01-21T22:36:01.939Z,-1.84
2023-01-21T22:38:28.525Z,-1.87
2023-01-21T22:40:55.751Z,-1.81
2023-01-21T22:43:22.367Z,-1.66
2023-01-21T22:45:49.203Z,-1.82
2023-01-21T22:48:16.369Z,-1.80
2023-01-21T22:50:44.467Z,-1.82
2023-01-21T22:53:12.599Z,-1.82
2023-01-21T22:55:39.980Z,-1.89
2023-01-21T22:58:07.031Z,-1.92
2023-01-21T23:00:39.421Z,-1.89
2023-01-21T23:03:07.799Z,-1.86
2023-01-21T23:05:35.416Z,-1.90
2023-01-21T23:08:02.008Z,-1.90
2023-01-21T23:10:28.636Z,-1.87
2023-01-21T23:12:55.407Z,-1.87
2023-01-21T23:15:23.173Z,-1.88
2023-01-21T23:17:51.325Z,-1.92
2023-01-21T23:20:18.388Z,-1.93
2023-01-21T23:22:45.887Z,-1.95
2023-01-21T23:25:14.395Z,-1.95
2023-01-21T23:27:41.443Z,-1.94
2023-01-21T23:30:09.773Z,-1.93
2023-01-21T23:32:36.426Z,-1.95
2023-01-21T23:35:03.036Z,-1.93
2023-01-21T23:37:29.603Z,-1.95
2023-01-21T23:39:56.235Z,-1.91
2023-01-21T23:42:23.683Z,-1.89
2023-01-21T23:44:51.173Z,-1.92
2023-01-21T23:47:18.412Z,-1.90
2023-01-21T23:49:44.964Z,-1.89
2023-01-21T23:52:12.514Z,-1.91
2023-01-21T23:54:40.337Z,-1.92
2023-01-21T23:57:07.816Z,-1.90
2023-01-21T23:59:35.587Z,-1.91
